createdAt,value
2022-12-25T00:01:48.932Z,99.90
2022-12-25T00:04:15.489Z,87.88
2022-12-25T00:06:42.021Z,82.05
2022-12-25T00:09:08.511Z,83.38
2022-12-25T00:11:35.099Z,83.25
2022-12-25T00:14:01.761Z,75.25
2022-12-25T00:16:28.491Z,86.85
2022-12-25T00:18:56.741Z,78.65
2022-12-25T00:21:23.359Z,74.32
2022-12-25T00:23:54.573Z,74.32
2022-12-25T00:26:21.195Z,69.85
2022-12-25T00:28:47.933Z,68.55
2022-12-25T00:31:16.940Z,69.55
2022-12-25T00:33:46.840Z,73.55
2022-12-25T00:36:15.479Z,71.22
2022-12-25T00:38:43.028Z,64.60
2022-12-25T00:41:14.250Z,63.15
2022-12-25T00:43:44.520Z,72.90
2022-12-25T00:46:13.162Z,74.72
2022-12-25T00:48:40.451Z,67.03
2022-12-25T00:51:08.887Z,65.47
2022-12-25T00:53:35.412Z,62.53
2022-12-25T00:56:05.030Z,71.25
2022-12-25T00:58:33.486Z,69.07
2022-12-25T01:01:00.168Z,78.93
2022-12-25T01:03:26.909Z,86.47
2022-12-25T01:06:02.381Z,75.85
2022-12-25T01:08:30.787Z,74.30
2022-12-25T01:10:59.571Z,75.60
2022-12-25T01:13:26.305Z,64.65
2022-12-25T01:15:52.866Z,72.93
2022-12-25T01:18:20.248Z,102.10
2022-12-25T01:20:47.304Z,67.00
2022-12-25T01:23:14.383Z,90.95
2022-12-25T01:25:41.366Z,73.72
2022-12-25T01:28:08.246Z,66.90
2022-12-25T01:30:35.600Z,72.43
2022-12-25T01:33:02.176Z,75.15
2022-12-25T01:35:28.731Z,89.82
2022-12-25T01:37:55.597Z,70.95
2022-12-25T01:40:22.206Z,74.55
2022-12-25T01:42:48.723Z,67.68
2022-12-25T01:45:33.838Z,72.68
2022-12-25T01:48:08.696Z,63.35
2022-12-25T01:50:39.222Z,63.65
2022-12-25T01:53:06.926Z,61.40
2022-12-25T01:55:35.362Z,66.85
2022-12-25T01:58:02.764Z,59.03
2022-12-25T02:00:29.325Z,57.83
2022-12-25T02:02:59.598Z,52.78
2022-12-25T02:05:31.894Z,50.78
2022-12-25T02:08:02.191Z,47.67
2022-12-25T02:10:29.454Z,53.65
2022-12-25T02:12:56.287Z,56.28
2022-12-25T02:15:30.386Z,49.92
2022-12-25T02:18:02.926Z,60.22
2022-12-25T02:20:41.550Z,49.30
2022-12-25T02:23:30.012Z,49.10
2022-12-25T02:26:23.892Z,40.80
2022-12-25T02:29:03.516Z,40.22
2022-12-25T02:31:41.196Z,40.92
2022-12-25T02:34:17.240Z,35.92
2022-12-25T02:36:56.389Z,34.70
2022-12-25T02:39:57.967Z,34.60
2022-12-25T02:43:04.037Z,38.70
2022-12-25T02:45:59.243Z,38.08
2022-12-25T02:48:49.073Z,35.78
2022-12-25T02:51:45.761Z,36.30
2022-12-25T02:54:36.651Z,35.45
2022-12-25T02:57:25.998Z,33.95
2022-12-25T03:00:14.986Z,32.92
2022-12-25T03:03:02.161Z,31.92
2022-12-25T03:05:50.915Z,37.17
2022-12-25T03:11:15.736Z,33.47
2022-12-25T03:13:46.475Z,33.95
2022-12-25T03:16:31.699Z,40.88
2022-12-25T03:18:59.516Z,36.85
2022-12-25T03:21:44.691Z,41.47
2022-12-25T03:24:30.091Z,31.83
2022-12-25T03:26:57.552Z,39.50
2022-12-25T03:29:51.449Z,39.15
2022-12-25T03:32:40.989Z,40.20
2022-12-25T03:35:25.788Z,46.25
2022-12-25T03:38:24.391Z,42.08
2022-12-25T03:41:33.724Z,44.30
2022-12-25T03:44:46.452Z,41.28
2022-12-25T03:47:46.017Z,38.67
2022-12-25T03:50:55.034Z,39.95
2022-12-25T03:53:58.203Z,44.65
2022-12-25T03:56:44.650Z,37.60
2022-12-25T03:59:29.859Z,40.15
2022-12-25T04:02:15.207Z,36.03
2022-12-25T04:05:00.688Z,37.83
2022-12-25T04:07:45.862Z,36.72
2022-12-25T04:10:31.109Z,39.28
2022-12-25T04:13:16.363Z,37.70
2022-12-25T04:16:01.611Z,36.03
2022-12-25T04:18:46.606Z,49.25
2022-12-25T04:21:31.782Z,37.28
2022-12-25T04:24:16.691Z,35.35
2022-12-25T04:27:01.961Z,34.13
2022-12-25T04:29:47.248Z,32.78
2022-12-25T04:32:32.432Z,41.72
2022-12-25T04:35:17.882Z,35.15
2022-12-25T04:37:44.491Z,39.00
2022-12-25T04:40:11.362Z,41.70
2022-12-25T04:42:37.973Z,38.15
2022-12-25T04:45:05.146Z,41.03
2022-12-25T04:47:33.292Z,45.00
2022-12-25T04:49:59.886Z,41.50
2022-12-25T04:52:26.490Z,43.42
2022-12-25T04:54:53.346Z,35.30
2022-12-25T04:57:20.009Z,38.47
2022-12-25T04:59:46.743Z,36.30
2022-12-25T05:02:13.415Z,43.15
2022-12-25T05:04:40.006Z,37.80
2022-12-25T05:07:06.552Z,38.10
2022-12-25T05:09:33.051Z,42.58
2022-12-25T05:11:59.663Z,44.72
2022-12-25T05:14:26.270Z,42.13
2022-12-25T05:16:52.818Z,38.97
2022-12-25T05:19:19.321Z,38.88
2022-12-25T05:21:45.861Z,36.13
2022-12-25T05:24:12.414Z,37.42
2022-12-25T05:26:38.945Z,40.47
2022-12-25T05:29:06.069Z,42.13
2022-12-25T05:31:32.907Z,41.67
2022-12-25T05:34:03.385Z,50.38
2022-12-25T05:36:29.861Z,43.95
2022-12-25T05:38:56.429Z,51.05
2022-12-25T05:41:23.050Z,56.47
2022-12-25T05:43:49.584Z,45.03
2022-12-25T05:46:16.351Z,52.53
2022-12-25T05:48:43.000Z,43.90
2022-12-25T05:51:12.059Z,44.10
2022-12-25T05:53:39.586Z,46.20
2022-12-25T05:56:07.683Z,43.05
2022-12-25T05:58:36.391Z,42.35
2022-12-25T06:01:03.252Z,44.10
2022-12-25T06:03:30.167Z,48.50
2022-12-25T06:05:56.851Z,42.38
2022-12-25T06:08:24.174Z,40.75
2022-12-25T06:10:50.675Z,51.33
2022-12-25T06:13:18.018Z,55.15
2022-12-25T06:15:44.578Z,56.85
2022-12-25T06:18:11.120Z,53.95
2022-12-25T06:20:40.971Z,49.50
2022-12-25T06:23:07.680Z,50.67
2022-12-25T06:25:34.279Z,58.53
2022-12-25T06:28:00.982Z,61.22
2022-12-25T06:30:27.453Z,52.47
2022-12-25T06:32:54.006Z,54.90
2022-12-25T06:35:20.557Z,52.55
2022-12-25T06:37:47.036Z,49.03
2022-12-25T06:40:13.984Z,48.47
2022-12-25T06:42:40.583Z,59.42
2022-12-25T06:45:07.838Z,50.25
2022-12-25T06:47:34.528Z,54.33
2022-12-25T06:50:01.070Z,67.28
2022-12-25T06:52:27.646Z,60.55
2022-12-25T06:54:54.376Z,56.38
2022-12-25T06:57:20.957Z,62.97
2022-12-25T06:59:51.394Z,60.03
2022-12-25T07:02:23.883Z,65.18
2022-12-25T07:04:51.392Z,59.80
2022-12-25T07:07:18.148Z,76.72
2022-12-25T07:09:44.868Z,92.30
2022-12-25T07:12:20.386Z,70.35
2022-12-25T07:14:50.134Z,80.50
2022-12-25T07:17:17.873Z,63.35
2022-12-25T07:19:45.449Z,75.70
2022-12-25T07:22:12.745Z,79.97
2022-12-25T07:24:39.245Z,69.90
2022-12-25T07:27:06.117Z,66.40
2022-12-25T07:29:32.796Z,65.22
2022-12-25T07:31:59.442Z,61.45
2022-12-25T07:34:26.436Z,63.85
2022-12-25T07:36:54.752Z,102.38
2022-12-25T07:39:21.413Z,67.68
2022-12-25T07:41:47.971Z,65.30
2022-12-25T07:44:15.042Z,65.82
2022-12-25T07:46:41.692Z,61.83
2022-12-25T07:49:08.173Z,60.78
2022-12-25T07:51:34.857Z,55.25
2022-12-25T07:54:01.521Z,68.82
2022-12-25T07:56:28.340Z,65.97
2022-12-25T07:58:54.970Z,68.35
2022-12-25T08:01:27.125Z,69.40
2022-12-25T08:03:56.491Z,61.00
2022-12-25T08:06:26.884Z,58.00
2022-12-25T08:08:53.445Z,62.67
2022-12-25T08:11:20.007Z,58.40
2022-12-25T08:13:46.557Z,62.80
2022-12-25T08:16:13.245Z,54.45
2022-12-25T08:18:40.663Z,85.65
2022-12-25T08:21:10.537Z,80.13
2022-12-25T08:23:39.540Z,64.72
2022-12-25T08:26:08.504Z,67.65
2022-12-25T08:28:36.098Z,62.05
2022-12-25T08:31:16.924Z,66.95
2022-12-25T08:33:44.310Z,60.75
2022-12-25T08:36:12.781Z,67.38
2022-12-25T08:38:39.680Z,77.93
2022-12-25T08:41:06.923Z,69.93
2022-12-25T08:43:33.457Z,59.63
2022-12-25T08:46:00.112Z,62.20
2022-12-25T08:48:27.550Z,67.55
2022-12-25T08:50:54.824Z,65.75
2022-12-25T08:53:21.595Z,62.78
2022-12-25T08:55:48.075Z,78.63
2022-12-25T08:58:14.767Z,61.72
2022-12-25T09:00:41.347Z,67.60
2022-12-25T09:03:07.971Z,60.58
2022-12-25T09:05:36.136Z,72.97
2022-12-25T09:08:02.869Z,61.60
2022-12-25T09:10:29.855Z,66.28
2022-12-25T09:12:56.450Z,81.05
2022-12-25T09:15:22.982Z,59.05
2022-12-25T09:17:49.457Z,61.65
2022-12-25T09:20:15.954Z,60.70
2022-12-25T09:22:42.501Z,61.92
2022-12-25T09:25:09.490Z,58.13
2022-12-25T09:27:36.229Z,109.88
2022-12-25T09:30:03.212Z,66.40
2022-12-25T09:32:29.737Z,64.32
2022-12-25T09:34:56.215Z,60.90
2022-12-25T09:37:22.750Z,59.95
2022-12-25T09:39:49.309Z,55.35
2022-12-25T09:42:34.616Z,64.28
2022-12-25T09:45:05.852Z,56.47
2022-12-25T09:47:35.981Z,57.47
2022-12-25T09:50:13.933Z,59.90
2022-12-25T09:52:55.233Z,53.78
2022-12-25T09:55:24.598Z,62.30
2022-12-25T09:57:59.432Z,55.75
2022-12-25T10:00:33.676Z,55.22
2022-12-25T10:03:22.132Z,51.80
2022-12-25T10:08:54.254Z,47.70
2022-12-25T10:11:52.978Z,53.03
2022-12-25T10:14:41.223Z,52.08
2022-12-25T10:17:33.229Z,59.65
2022-12-25T10:20:07.995Z,52.35
2022-12-25T10:22:40.691Z,49.88
2022-12-25T10:25:17.085Z,56.90
2022-12-25T10:27:43.702Z,55.17
2022-12-25T10:30:24.692Z,49.60
2022-12-25T10:32:52.879Z,46.92
2022-12-25T10:35:23.113Z,42.72
2022-12-25T10:37:58.681Z,52.13
2022-12-25T10:40:31.377Z,41.35
2022-12-25T10:43:08.163Z,44.25
2022-12-25T10:45:46.687Z,45.20
2022-12-25T10:48:28.013Z,38.03
2022-12-25T10:50:55.857Z,43.13
2022-12-25T10:53:25.985Z,41.70
2022-12-25T10:56:00.052Z,37.08
2022-12-25T10:58:27.585Z,42.53
2022-12-25T11:01:02.442Z,39.85
2022-12-25T11:03:35.930Z,40.08
2022-12-25T11:06:03.020Z,38.42
2022-12-25T11:08:33.201Z,43.67
2022-12-25T11:11:08.176Z,36.85
2022-12-25T11:13:40.818Z,37.58
2022-12-25T11:16:13.133Z,36.95
2022-12-25T11:18:51.498Z,33.15
2022-12-25T11:21:30.479Z,31.90
2022-12-25T11:24:01.610Z,31.42
2022-12-25T11:26:30.310Z,34.53
2022-12-25T11:28:57.724Z,35.40
2022-12-25T11:31:39.510Z,38.58
2022-12-25T11:34:28.743Z,48.53
2022-12-25T11:36:55.746Z,41.60
2022-12-25T11:39:36.157Z,35.30
2022-12-25T11:42:08.619Z,30.80
2022-12-25T11:44:46.701Z,29.67
2022-12-25T11:47:27.834Z,32.85
2022-12-25T11:50:38.697Z,34.63
2022-12-25T11:53:27.434Z,33.28
2022-12-25T11:56:10.316Z,33.58
2022-12-25T11:58:44.189Z,33.45
2022-12-25T12:01:18.965Z,33.65
2022-12-25T12:03:45.811Z,33.13
2022-12-25T12:06:44.401Z,34.30
2022-12-25T12:09:47.656Z,34.03
2022-12-25T12:12:26.831Z,29.40
2022-12-25T12:15:07.433Z,31.45
2022-12-25T12:17:34.116Z,35.10
2022-12-25T12:20:11.995Z,33.13
2022-12-25T12:22:39.349Z,34.90
2022-12-25T12:25:07.985Z,36.08
2022-12-25T12:27:40.485Z,40.47
2022-12-25T12:30:28.083Z,30.48
2022-12-25T12:33:01.258Z,33.20
2022-12-25T12:35:34.213Z,35.00
2022-12-25T12:38:04.630Z,31.75
2022-12-25T12:40:33.728Z,33.17
2022-12-25T12:43:00.823Z,35.30
2022-12-25T12:45:32.282Z,33.83
2022-12-25T12:47:59.243Z,35.30
2022-12-25T12:50:41.064Z,31.55
2022-12-25T12:53:16.637Z,31.63
2022-12-25T12:55:43.183Z,33.50
2022-12-25T12:58:25.146Z,33.08
2022-12-25T13:01:26.851Z,31.75
2022-12-25T13:04:28.686Z,32.63
2022-12-25T13:06:59.227Z,36.15
2022-12-25T13:09:52.065Z,47.20
2022-12-25T13:12:20.224Z,48.92
2022-12-25T13:14:48.181Z,38.90
2022-12-25T13:17:18.792Z,37.35
2022-12-25T13:19:46.221Z,40.88
2022-12-25T13:22:30.997Z,47.13
2022-12-25T13:24:59.803Z,44.42
2022-12-25T13:27:29.345Z,42.35
2022-12-25T13:29:56.758Z,39.92
2022-12-25T13:32:29.905Z,39.85
2022-12-25T13:34:57.173Z,36.00
2022-12-25T13:37:27.114Z,31.33
2022-12-25T13:39:55.553Z,34.55
2022-12-25T13:42:33.832Z,34.67
2022-12-25T13:45:06.275Z,33.40
2022-12-25T13:47:34.000Z,35.00
2022-12-25T13:50:14.307Z,36.33
2022-12-25T13:52:40.820Z,36.97
2022-12-25T13:55:36.789Z,42.95
2022-12-25T13:58:05.907Z,42.55
2022-12-25T14:00:35.172Z,39.92
2022-12-25T14:03:04.402Z,52.72
2022-12-25T14:05:42.071Z,54.22
2022-12-25T14:08:16.113Z,46.90
2022-12-25T14:10:46.047Z,53.58
2022-12-25T14:13:14.634Z,49.25
2022-12-25T14:15:41.980Z,40.13
2022-12-25T14:18:15.712Z,37.42
2022-12-25T14:21:07.280Z,40.53
2022-12-25T14:23:54.435Z,64.07
2022-12-25T14:26:24.124Z,47.55
2022-12-25T14:28:54.252Z,43.60
2022-12-25T14:31:21.880Z,36.13
2022-12-25T14:33:49.164Z,43.63
2022-12-25T14:36:16.204Z,38.10
2022-12-25T14:38:44.273Z,35.00
2022-12-25T14:41:33.566Z,34.80
2022-12-25T14:44:02.495Z,38.65
2022-12-25T14:46:31.387Z,43.50
2022-12-25T14:49:02.976Z,43.03
2022-12-25T14:51:31.795Z,43.38
2022-12-25T14:54:01.980Z,44.17
2022-12-25T14:56:38.147Z,45.45
2022-12-25T14:59:09.641Z,47.88
2022-12-25T15:01:41.929Z,43.35
2022-12-25T15:04:11.577Z,43.97
2022-12-25T15:06:54.905Z,46.45
2022-12-25T15:09:22.977Z,39.67
2022-12-25T15:11:51.312Z,48.85
2022-12-25T15:14:17.926Z,51.00
2022-12-25T15:16:51.249Z,49.47
2022-12-25T15:19:25.397Z,45.10
2022-12-25T15:21:53.941Z,51.17
2022-12-25T15:24:20.430Z,44.63
2022-12-25T15:26:47.442Z,53.55
2022-12-25T15:29:13.920Z,48.35
2022-12-25T15:31:41.237Z,49.25
2022-12-25T15:34:17.265Z,46.15
2022-12-25T15:36:43.770Z,46.97
2022-12-25T15:39:10.297Z,49.00
2022-12-25T15:41:56.875Z,53.67
2022-12-25T15:44:24.249Z,52.30
2022-12-25T15:46:51.001Z,51.60
2022-12-25T15:49:18.047Z,50.70
2022-12-25T15:51:45.578Z,48.80
2022-12-25T15:54:12.575Z,54.75
2022-12-25T15:56:45.576Z,56.20
2022-12-25T15:59:13.844Z,56.35
2022-12-25T16:01:47.297Z,54.55
2022-12-25T16:04:13.975Z,51.15
2022-12-25T16:06:40.811Z,49.55
2022-12-25T16:09:09.551Z,56.17
2022-12-25T16:11:36.134Z,60.45
2022-12-25T16:14:02.701Z,61.65
2022-12-25T16:16:29.259Z,58.85
2022-12-25T16:18:55.760Z,62.65
2022-12-25T16:21:23.840Z,54.83
2022-12-25T16:23:50.460Z,57.80
2022-12-25T16:26:17.374Z,65.72
2022-12-25T16:28:43.956Z,65.35
2022-12-25T16:31:11.741Z,70.10
2022-12-25T16:33:38.461Z,74.25
2022-12-25T16:36:05.994Z,71.15
2022-12-25T16:38:32.573Z,70.45
2022-12-25T16:41:00.662Z,67.72
2022-12-25T16:43:27.843Z,77.13
2022-12-25T16:45:54.480Z,72.05
2022-12-25T16:48:21.205Z,79.93
2022-12-25T16:50:47.719Z,76.50
2022-12-25T16:53:14.275Z,79.63
2022-12-25T16:55:40.883Z,77.40
2022-12-25T16:58:07.683Z,74.60
2022-12-25T17:00:34.220Z,78.72
2022-12-25T17:03:01.357Z,81.10
2022-12-25T17:05:28.137Z,90.38
2022-12-25T17:07:54.637Z,80.00
2022-12-25T17:10:21.822Z,85.55
2022-12-25T17:12:48.318Z,86.75
2022-12-25T17:15:14.913Z,73.38
2022-12-25T17:17:41.762Z,89.43
2022-12-25T17:20:08.890Z,90.80
2022-12-25T17:22:35.429Z,74.38
2022-12-25T17:25:02.068Z,84.22
2022-12-25T17:27:28.621Z,90.32
2022-12-25T17:29:55.202Z,88.65
2022-12-25T17:32:21.893Z,89.97
2022-12-25T17:34:48.512Z,96.70
2022-12-25T17:37:15.185Z,97.35
2022-12-25T17:39:41.884Z,95.82
2022-12-25T17:42:08.349Z,104.75
2022-12-25T17:44:34.912Z,97.03
2022-12-25T17:47:01.699Z,98.80
2022-12-25T17:49:28.275Z,95.22
2022-12-25T17:51:54.944Z,102.10
2022-12-25T17:54:21.504Z,100.40
2022-12-25T17:56:48.281Z,105.78
2022-12-25T17:59:18.617Z,111.85
2022-12-25T18:01:46.865Z,96.05
2022-12-25T18:04:13.979Z,106.28
2022-12-25T18:06:41.688Z,96.75
2022-12-25T18:09:09.861Z,94.97
2022-12-25T18:11:39.414Z,100.53
2022-12-25T18:14:07.957Z,110.90
2022-12-25T18:16:38.416Z,122.25
2022-12-25T18:19:05.844Z,116.25
2022-12-25T18:21:32.478Z,125.03
2022-12-25T18:23:58.972Z,119.10
2022-12-25T18:26:26.140Z,123.03
2022-12-25T18:28:52.933Z,138.90
2022-12-25T18:31:22.348Z,149.98
2022-12-25T18:33:50.178Z,172.48
2022-12-25T18:36:20.390Z,171.90
2022-12-25T18:38:48.922Z,106.53
2022-12-25T18:41:16.095Z,125.75
2022-12-25T18:43:52.320Z,166.65
2022-12-25T18:46:25.880Z,135.90
2022-12-25T18:48:56.160Z,138.05
2022-12-25T18:51:22.942Z,145.30
2022-12-25T18:53:49.855Z,163.98
2022-12-25T18:56:18.242Z,145.45
2022-12-25T18:58:46.358Z,164.57
2022-12-25T19:01:17.320Z,133.45
2022-12-25T19:03:45.410Z,179.77
2022-12-25T19:06:19.837Z,152.35
2022-12-25T19:08:46.636Z,153.55
2022-12-25T19:11:13.359Z,142.77
2022-12-25T19:13:40.020Z,155.60
2022-12-25T19:16:06.713Z,149.93
2022-12-25T19:18:33.291Z,125.75
2022-12-25T19:21:04.674Z,162.82
2022-12-25T19:23:31.536Z,141.23
2022-12-25T19:25:58.203Z,232.32
2022-12-25T19:28:25.355Z,154.57
2022-12-25T19:30:54.020Z,132.57
2022-12-25T19:33:21.830Z,296.45
2022-12-25T19:35:49.035Z,243.15
2022-12-25T19:38:16.483Z,276.95
2022-12-25T19:41:00.752Z,297.98
2022-12-25T19:43:33.734Z,134.85
2022-12-25T19:46:01.861Z,141.68
2022-12-25T19:48:29.408Z,125.00
2022-12-25T19:50:56.038Z,105.65
2022-12-25T19:53:25.436Z,273.98
2022-12-25T19:55:53.675Z,119.82
2022-12-25T19:58:21.727Z,109.10
2022-12-25T20:01:05.177Z,102.25
2022-12-25T20:03:33.169Z,124.25
2022-12-25T20:06:00.171Z,103.90
2022-12-25T20:08:26.673Z,133.80
2022-12-25T20:10:53.292Z,139.10
2022-12-25T20:13:20.622Z,164.20
2022-12-25T20:15:47.272Z,148.77
2022-12-25T20:18:14.492Z,142.73
2022-12-25T20:20:41.241Z,200.00
2022-12-25T20:23:07.781Z,179.10
2022-12-25T20:25:34.523Z,219.80
2022-12-25T20:28:01.048Z,391.08
2022-12-25T20:30:27.681Z,133.27
2022-12-25T20:32:55.292Z,143.45
2022-12-25T20:35:21.842Z,203.68
2022-12-25T20:37:48.545Z,211.43
2022-12-25T20:40:16.260Z,198.27
2022-12-25T20:42:43.469Z,236.50
2022-12-25T20:45:12.549Z,161.30
2022-12-25T20:47:39.274Z,142.23
2022-12-25T20:50:06.521Z,98.93
2022-12-25T20:52:32.991Z,112.05
2022-12-25T20:54:59.495Z,73.43
2022-12-25T20:57:26.132Z,125.13
2022-12-25T20:59:53.535Z,90.93
2022-12-25T21:02:35.977Z,114.57
2022-12-25T21:05:05.088Z,314.40
2022-12-25T21:07:31.625Z,155.95
2022-12-25T21:09:59.220Z,135.45
2022-12-25T21:12:26.132Z,119.80
2022-12-25T21:14:52.621Z,106.05
2022-12-25T21:17:19.246Z,392.95
2022-12-25T21:19:45.849Z,210.65
2022-12-25T21:22:12.754Z,268.70
2022-12-25T21:24:39.244Z,152.88
2022-12-25T21:27:05.740Z,185.77
2022-12-25T21:29:32.298Z,164.82
2022-12-25T21:32:17.225Z,320.63
2022-12-25T21:34:43.899Z,117.03
2022-12-25T21:37:10.377Z,90.90
2022-12-25T21:39:37.019Z,120.50
2022-12-25T21:42:04.725Z,95.40
2022-12-25T21:44:31.279Z,94.18
2022-12-25T21:46:57.876Z,192.75
2022-12-25T21:49:43.054Z,101.22
2022-12-25T21:52:09.828Z,75.70
2022-12-25T21:54:36.776Z,87.68
2022-12-25T21:57:03.566Z,113.38
2022-12-25T21:59:30.164Z,231.30
2022-12-25T22:01:56.836Z,117.78
2022-12-25T22:04:23.717Z,120.20
2022-12-25T22:07:09.253Z,171.10
2022-12-25T22:09:36.008Z,150.52
2022-12-25T22:12:21.841Z,262.85
2022-12-25T22:14:54.945Z,167.93
2022-12-25T22:17:45.538Z,109.93
2022-12-25T22:20:15.774Z,86.78
2022-12-25T22:22:42.729Z,121.18
2022-12-25T22:25:10.971Z,116.28
2022-12-25T22:27:39.292Z,138.20
2022-12-25T22:30:08.269Z,114.97
2022-12-25T22:32:34.915Z,119.70
2022-12-25T22:35:01.496Z,124.80
2022-12-25T22:37:28.133Z,100.22
2022-12-25T22:39:54.732Z,111.32
2022-12-25T22:42:21.610Z,133.48
2022-12-25T22:44:48.292Z,95.95
2022-12-25T22:47:15.449Z,121.28
2022-12-25T22:49:42.078Z,100.80
2022-12-25T22:52:09.918Z,99.93
2022-12-25T22:54:36.919Z,88.45
2022-12-25T22:57:03.775Z,93.22
2022-12-25T22:59:30.381Z,103.72
2022-12-25T23:01:57.092Z,100.43
2022-12-25T23:04:24.053Z,80.10
2022-12-25T23:06:51.371Z,69.63
2022-12-25T23:09:24.793Z,73.07
2022-12-25T23:11:51.661Z,61.72
2022-12-25T23:14:36.757Z,63.28
2022-12-25T23:17:03.325Z,66.10
2022-12-25T23:19:48.538Z,69.25
2022-12-25T23:22:33.981Z,37.83
2022-12-25T23:25:18.937Z,62.97
2022-12-25T23:27:46.048Z,34.33
2022-12-25T23:30:15.614Z,49.83
2022-12-25T23:32:44.016Z,43.17
2022-12-25T23:35:11.503Z,59.38
2022-12-25T23:37:38.081Z,49.13
2022-12-25T23:40:05.182Z,45.03
2022-12-25T23:42:31.664Z,55.20
2022-12-25T23:44:58.208Z,57.47
2022-12-25T23:47:24.740Z,48.72
2022-12-25T23:49:51.365Z,54.20
2022-12-25T23:52:17.854Z,59.22
2022-12-25T23:54:44.355Z,52.45
2022-12-25T23:57:10.821Z,51.60
2022-12-25T23:59:37.282Z,51.10
